createdAt,value
2022-12-04T00:01:24.090Z,101269.09
2022-12-04T00:07:14.079Z,101253.75
2022-12-04T00:13:00.739Z,101256.19
2022-12-04T00:18:47.897Z,101246.47
2022-12-04T00:24:35.040Z,101254.13
2022-12-04T00:30:23.349Z,101239.94
2022-12-04T00:36:18.339Z,101225.56
2022-12-04T00:42:10.765Z,101224.66
2022-12-04T00:47:57.565Z,101216.28
2022-12-04T00:53:45.406Z,101218.25
2022-12-04T00:59:32.309Z,101222.31
2022-12-04T01:05:21.137Z,101215.13
2022-12-04T01:11:08.194Z,101212.63
2022-12-04T01:16:55.069Z,101194.91
2022-12-04T01:22:42.196Z,101210.44
2022-12-04T01:28:29.080Z,101195.06
2022-12-04T01:34:16.016Z,101193.44
2022-12-04T01:40:03.732Z,101191.47
2022-12-04T01:45:53.665Z,101190.94
2022-12-04T01:51:45.386Z,101188.19
2022-12-04T01:57:33.081Z,101194.00
2022-12-04T02:03:20.270Z,101188.75
2022-12-04T02:09:08.020Z,101181.06
2022-12-04T02:15:13.464Z,101192.38
2022-12-04T02:21:10.345Z,101179.72
2022-12-04T02:27:03.514Z,101198.09
2022-12-04T02:33:22.687Z,101204.59
2022-12-04T02:39:12.404Z,101199.91
2022-12-04T02:45:03.438Z,101207.69
2022-12-04T02:50:54.207Z,101202.94
2022-12-04T02:56:44.222Z,101192.22
2022-12-04T03:02:53.488Z,101194.09
2022-12-04T03:08:49.070Z,101203.19
2022-12-04T03:14:42.291Z,101193.09
2022-12-04T03:20:32.267Z,101194.84
2022-12-04T03:26:27.428Z,101196.88
2022-12-04T03:32:26.784Z,101200.28
2022-12-04T03:38:16.633Z,101199.81
2022-12-04T03:44:20.562Z,101201.03
2022-12-04T03:50:09.923Z,101192.94
2022-12-04T03:56:01.192Z,101203.66
2022-12-04T04:01:50.808Z,101205.13
2022-12-04T04:07:48.844Z,101205.00
2022-12-04T04:14:00.403Z,101214.34
2022-12-04T04:20:12.779Z,101208.72
2022-12-04T04:26:00.780Z,101215.25
2022-12-04T04:31:56.962Z,101215.31
2022-12-04T04:38:11.526Z,101215.31
2022-12-04T04:44:14.437Z,101217.50
2022-12-04T04:50:07.513Z,101213.72
2022-12-04T04:55:54.721Z,101216.13
2022-12-04T05:01:45.305Z,101220.94
2022-12-04T05:07:32.305Z,101217.16
2022-12-04T05:13:19.963Z,101210.28
2022-12-04T05:19:25.163Z,101224.06
2022-12-04T05:25:11.998Z,101212.03
2022-12-04T05:31:01.276Z,101213.47
2022-12-04T05:36:48.063Z,101220.56
2022-12-04T05:42:37.583Z,101214.06
2022-12-04T05:48:24.385Z,101231.50
2022-12-04T05:54:11.198Z,101237.47
2022-12-04T05:59:58.604Z,101239.91
2022-12-04T06:05:45.514Z,101231.69
2022-12-04T06:11:35.467Z,101236.13
2022-12-04T06:17:22.258Z,101234.25
2022-12-04T06:23:08.914Z,101247.47
2022-12-04T06:28:57.711Z,101253.00
2022-12-04T06:34:44.517Z,101254.88
2022-12-04T06:40:31.448Z,101245.19
2022-12-04T06:46:22.795Z,101253.69
2022-12-04T06:52:09.601Z,101251.84
2022-12-04T06:57:56.700Z,101243.97
2022-12-04T07:03:51.015Z,101240.97
2022-12-04T07:09:38.261Z,101251.72
2022-12-04T07:15:25.006Z,101257.56
2022-12-04T07:21:15.853Z,101246.56
2022-12-04T07:27:02.587Z,101238.84
2022-12-04T07:32:49.574Z,101255.00
2022-12-04T07:38:36.556Z,101255.28
2022-12-04T07:44:23.450Z,101257.25
2022-12-04T07:50:10.223Z,101250.44
2022-12-04T07:55:56.890Z,101247.22
2022-12-04T08:01:43.821Z,101256.94
2022-12-04T08:07:30.733Z,101258.25
2022-12-04T08:13:17.458Z,101268.50
2022-12-04T08:19:05.641Z,101270.19
2022-12-04T08:24:52.452Z,101267.22
2022-12-04T08:30:39.365Z,101280.66
2022-12-04T08:36:27.097Z,101283.34
2022-12-04T08:42:13.972Z,101286.22
2022-12-04T08:48:00.731Z,101289.13
2022-12-04T08:53:47.588Z,101285.66
2022-12-04T08:59:34.310Z,101295.19
2022-12-04T09:05:21.123Z,101290.38
2022-12-04T09:11:17.208Z,101296.81
2022-12-04T09:17:04.088Z,101313.09
2022-12-04T09:23:03.932Z,101307.72
2022-12-04T09:28:52.713Z,101309.94
2022-12-04T09:34:39.654Z,101301.34
2022-12-04T09:40:36.874Z,101301.84
2022-12-04T09:46:38.178Z,101290.78
2022-12-04T09:52:42.596Z,101294.84
2022-12-04T09:58:58.436Z,101299.53
2022-12-04T10:04:48.427Z,101299.53
2022-12-04T10:10:45.095Z,101308.00
2022-12-04T10:16:48.520Z,101303.31
2022-12-04T10:23:01.525Z,101297.88
2022-12-04T10:28:55.559Z,101306.13
2022-12-04T10:34:45.802Z,101309.69
2022-12-04T10:40:44.260Z,101309.78
2022-12-04T10:46:33.988Z,101300.03
2022-12-04T10:52:20.790Z,101293.06
2022-12-04T10:58:18.537Z,101299.47
2022-12-04T11:04:18.745Z,101298.81
2022-12-04T11:10:18.666Z,101288.44
2022-12-04T11:16:06.692Z,101300.09
2022-12-04T11:21:56.893Z,101301.56
2022-12-04T11:27:46.947Z,101310.47
2022-12-04T11:34:04.998Z,101306.00
2022-12-04T11:39:54.089Z,101306.81
2022-12-04T11:45:41.630Z,101305.94
2022-12-04T11:51:40.332Z,101301.84
2022-12-04T11:57:45.855Z,101302.06
2022-12-04T12:03:43.252Z,101279.22
2022-12-04T12:09:53.291Z,101275.09
2022-12-04T12:15:59.602Z,101264.91
2022-12-04T12:22:03.448Z,101262.28
2022-12-04T12:28:10.894Z,101257.00
2022-12-04T12:34:08.371Z,101242.19
2022-12-04T12:40:05.466Z,101240.22
2022-12-04T12:46:00.766Z,101242.38
2022-12-04T12:52:07.829Z,101241.16
2022-12-04T12:58:14.949Z,101251.09
2022-12-04T13:04:14.746Z,101261.63
2022-12-04T13:10:12.124Z,101256.56
2022-12-04T13:16:04.475Z,101257.25
2022-12-04T13:22:28.286Z,101268.66
2022-12-04T13:28:41.633Z,101270.59
2022-12-04T13:34:56.660Z,101262.50
2022-12-04T13:40:55.625Z,101272.78
2022-12-04T13:46:53.890Z,101274.34
2022-12-04T13:52:42.529Z,101278.03
2022-12-04T13:58:32.101Z,101286.00
2022-12-04T14:04:25.078Z,101264.22
2022-12-04T14:10:14.820Z,101270.38
2022-12-04T14:16:07.963Z,101267.31
2022-12-04T14:21:54.708Z,101256.94
2022-12-04T14:27:41.501Z,101256.34
2022-12-04T14:33:30.860Z,101256.66
2022-12-04T14:39:44.166Z,101250.06
2022-12-04T14:45:43.682Z,101263.72
2022-12-04T14:51:36.112Z,101267.59
2022-12-04T14:57:28.973Z,101287.00
2022-12-04T15:03:17.990Z,101285.34
2022-12-04T15:09:32.306Z,101287.28
2022-12-04T15:15:25.492Z,101307.59
2022-12-04T15:21:12.451Z,101314.31
2022-12-04T15:26:59.752Z,101315.25
2022-12-04T15:32:50.482Z,101323.13
2022-12-04T15:38:37.587Z,101325.09
2022-12-04T15:44:33.436Z,101336.06
2022-12-04T15:50:20.163Z,101350.66
2022-12-04T15:56:17.848Z,101351.69
2022-12-04T16:02:28.820Z,101351.91
2022-12-04T16:08:43.273Z,101341.16
2022-12-04T16:14:30.220Z,101363.13
2022-12-04T16:20:17.033Z,101359.19
2022-12-04T16:26:03.782Z,101359.13
2022-12-04T16:31:57.040Z,101366.56
2022-12-04T16:37:47.923Z,101373.78
2022-12-04T16:43:34.718Z,101366.78
2022-12-04T16:49:21.532Z,101364.00
2022-12-04T16:55:33.381Z,101368.56
2022-12-04T17:01:26.342Z,101372.34
2022-12-04T17:07:13.219Z,101378.75
2022-12-04T17:13:03.154Z,101365.06
2022-12-04T17:18:50.151Z,101367.88
2022-12-04T17:24:43.564Z,101368.25
2022-12-04T17:30:36.169Z,101389.81
2022-12-04T17:36:26.170Z,101412.44
2022-12-04T17:42:12.997Z,101401.69
2022-12-04T17:48:00.615Z,101409.69
2022-12-04T17:53:47.522Z,101421.94
2022-12-04T17:59:34.207Z,101421.13
2022-12-04T18:05:21.248Z,101417.66
2022-12-04T18:11:08.168Z,101420.19
2022-12-04T18:16:56.657Z,101412.56
2022-12-04T18:22:46.858Z,101412.50
2022-12-04T18:28:34.299Z,101419.25
2022-12-04T18:34:21.845Z,101414.28
2022-12-04T18:40:09.308Z,101421.47
2022-12-04T18:46:07.325Z,101420.47
2022-12-04T18:51:54.939Z,101426.25
2022-12-04T18:57:41.988Z,101431.50
2022-12-04T19:03:29.865Z,101439.97
2022-12-04T19:09:40.955Z,101446.88
2022-12-04T19:15:33.077Z,101448.44
2022-12-04T19:21:20.259Z,101454.66
2022-12-04T19:27:13.178Z,101461.59
2022-12-04T19:33:00.509Z,101483.63
2022-12-04T19:38:47.456Z,101467.94
2022-12-04T19:44:50.116Z,101472.41
2022-12-04T19:50:37.138Z,101485.13
2022-12-04T19:56:26.072Z,101478.47
2022-12-04T20:02:13.175Z,101486.56
2022-12-04T20:13:48.931Z,101491.56
2022-12-04T20:19:36.055Z,101506.06
2022-12-04T20:25:25.871Z,101520.50
2022-12-04T20:31:18.275Z,101525.75
2022-12-04T20:37:05.015Z,101522.72
2022-12-04T20:42:51.997Z,101534.31
2022-12-04T20:48:38.678Z,101537.56
2022-12-04T20:54:25.399Z,101532.09
2022-12-04T21:00:16.085Z,101547.63
2022-12-04T21:06:06.003Z,101542.50
2022-12-04T21:11:57.731Z,101542.88
2022-12-04T21:17:45.016Z,101556.91
2022-12-04T21:23:31.981Z,101559.94
2022-12-04T21:29:19.221Z,101561.78
2022-12-04T21:35:06.690Z,101560.13
2022-12-04T21:40:53.568Z,101562.88
2022-12-04T21:46:41.093Z,101570.69
2022-12-04T21:52:28.264Z,101564.97
2022-12-04T21:58:15.705Z,101572.69
2022-12-04T22:04:02.648Z,101569.19
2022-12-04T22:09:52.458Z,101572.31
2022-12-04T22:15:44.344Z,101564.97
2022-12-04T22:21:31.512Z,101574.97
2022-12-04T22:27:18.397Z,101581.03
2022-12-04T22:33:07.828Z,101586.59
2022-12-04T22:39:09.517Z,101589.34
2022-12-04T22:44:56.987Z,101589.59
2022-12-04T22:50:44.222Z,101586.97
2022-12-04T22:56:51.113Z,101596.09
2022-12-04T23:02:40.069Z,101584.16
2022-12-04T23:08:49.170Z,101588.53
2022-12-04T23:14:38.980Z,101597.97
2022-12-04T23:27:54.422Z,101613.44
2022-12-04T23:33:41.870Z,101604.25
2022-12-04T23:39:29.021Z,101608.97
2022-12-04T23:45:16.026Z,101623.53
2022-12-04T23:51:04.372Z,101613.19
2022-12-04T23:56:54.021Z,101611.81
